AAL3073 KIAD-KCLT
Flight info
| Callsign | AAL3073 |
|---|---|
| Flight time | 0h 55m |
| Altitude | 28000 |
| Route | SCRAM6 GLANC DCT AIROW CHSLY6 |
| Aircraft | A320/M-VGDW/C |
Departure
| Time | 2026-05-05 00:32 |
|---|---|
| Airport | Washington Dulles International Airport (KIAD) |
Arrival
| Time | 2026-05-05 01:27 |
|---|---|
| Airport | Charlotte Douglas International Airport (KCLT) |
| Time | Latitude | Longitude | Altitude | Speed | Heading |
|---|---|---|---|---|---|
| 2026-05-04 23:41 | 38.94930 | -77.45377 | 295 ft | 0 kts | 180° |
| 2026-05-05 00:21 | 38.94955 | -77.45377 | 299 ft | 4 kts | 180° |
| 2026-05-05 00:21 | 38.94982 | -77.45377 | 299 ft | 4 kts | 182° |
| 2026-05-05 00:21 | 38.95008 | -77.45375 | 296 ft | 3 kts | 191° |
| 2026-05-05 00:21 | 38.95021 | -77.45370 | 296 ft | 2 kts | 229° |
| 2026-05-05 00:22 | 38.95026 | -77.45355 | 297 ft | 3 kts | 271° |
| 2026-05-05 00:22 | 38.95026 | -77.45357 | 297 ft | 4 kts | 271° |
| 2026-05-05 00:22 | 38.95026 | -77.45374 | 297 ft | 1 kts | 271° |
| 2026-05-05 00:24 | 38.95026 | -77.45375 | 292 ft | 0 kts | 271° |
| 2026-05-05 00:24 | 38.95026 | -77.45383 | 292 ft | 1 kts | 270° |
| 2026-05-05 00:25 | 38.95026 | -77.45401 | 293 ft | 3 kts | 270° |
| 2026-05-05 00:25 | 38.95026 | -77.45442 | 290 ft | 8 kts | 270° |
| 2026-05-05 00:25 | 38.95026 | -77.45536 | 285 ft | 11 kts | 270° |
| 2026-05-05 00:25 | 38.94990 | -77.45603 | 281 ft | 11 kts | 182° |
| 2026-05-05 00:26 | 38.94910 | -77.45603 | 282 ft | 12 kts | 181° |
| 2026-05-05 00:26 | 38.94825 | -77.45604 | 283 ft | 13 kts | 181° |
| 2026-05-05 00:26 | 38.94730 | -77.45605 | 283 ft | 15 kts | 180° |
| 2026-05-05 00:26 | 38.94622 | -77.45607 | 283 ft | 15 kts | 180° |
| 2026-05-05 00:27 | 38.94520 | -77.45608 | 285 ft | 15 kts | 181° |
| 2026-05-05 00:27 | 38.94416 | -77.45610 | 285 ft | 16 kts | 180° |
| 2026-05-05 00:27 | 38.94308 | -77.45611 | 290 ft | 16 kts | 180° |
| 2026-05-05 00:27 | 38.94199 | -77.45613 | 285 ft | 16 kts | 181° |
| 2026-05-05 00:28 | 38.94092 | -77.45615 | 285 ft | 16 kts | 180° |
| 2026-05-05 00:28 | 38.93975 | -77.45617 | 285 ft | 18 kts | 180° |
| 2026-05-05 00:28 | 38.93846 | -77.45619 | 283 ft | 19 kts | 181° |
| 2026-05-05 00:28 | 38.93734 | -77.45622 | 283 ft | 14 kts | 176° |
| 2026-05-05 00:29 | 38.93660 | -77.45546 | 284 ft | 13 kts | 130° |
| 2026-05-05 00:29 | 38.93590 | -77.45496 | 283 ft | 13 kts | 190° |
| 2026-05-05 00:29 | 38.93498 | -77.45539 | 279 ft | 14 kts | 201° |
| 2026-05-05 00:29 | 38.93463 | -77.45556 | 278 ft | 0 kts | 200° |
| 2026-05-05 00:30 | 38.93451 | -77.45562 | 277 ft | 6 kts | 200° |
| 2026-05-05 00:31 | 38.93390 | -77.45613 | 277 ft | 13 kts | 234° |
| 2026-05-05 00:31 | 38.93406 | -77.45751 | 278 ft | 24 kts | 290° |
| 2026-05-05 00:31 | 38.93560 | -77.46273 | 281 ft | 98 kts | 291° |
| 2026-05-05 00:31 | 38.93876 | -77.47339 | 282 ft | 155 kts | 290° |
| 2026-05-05 00:32 | 38.94291 | -77.48722 | 696 ft | 168 kts | 287° |
| 2026-05-05 00:32 | 38.94706 | -77.50143 | 1385 ft | 171 kts | 283° |
| 2026-05-05 00:32 | 38.95115 | -77.51565 | 2132 ft | 171 kts | 283° |
| 2026-05-05 00:32 | 38.95519 | -77.53079 | 2541 ft | 187 kts | 275° |
| 2026-05-05 00:33 | 38.95393 | -77.54761 | 2816 ft | 199 kts | 242° |
| 2026-05-05 00:33 | 38.94423 | -77.56051 | 3142 ft | 219 kts | 206° |
| 2026-05-05 00:33 | 38.92863 | -77.56581 | 3605 ft | 243 kts | 194° |
| 2026-05-05 00:33 | 38.91175 | -77.56981 | 4414 ft | 250 kts | 193° |
| 2026-05-05 00:34 | 38.89437 | -77.57366 | 5260 ft | 256 kts | 193° |
| 2026-05-05 00:34 | 38.87665 | -77.57756 | 6110 ft | 261 kts | 194° |
| 2026-05-05 00:34 | 38.85856 | -77.58162 | 6893 ft | 267 kts | 194° |
| 2026-05-05 00:34 | 38.84006 | -77.58586 | 7660 ft | 273 kts | 195° |
| 2026-05-05 00:35 | 38.82114 | -77.59025 | 8423 ft | 280 kts | 196° |
| 2026-05-05 00:35 | 38.80177 | -77.59477 | 9182 ft | 286 kts | 197° |
| 2026-05-05 00:35 | 38.78190 | -77.59943 | 9843 ft | 295 kts | 197° |
| 2026-05-05 00:35 | 38.76142 | -77.60425 | 10396 ft | 308 kts | 197° |
| 2026-05-05 00:36 | 38.73955 | -77.60947 | 10693 ft | 329 kts | 196° |
| 2026-05-05 00:36 | 38.71670 | -77.61487 | 11300 ft | 337 kts | 196° |
| 2026-05-05 00:36 | 38.69346 | -77.62029 | 12049 ft | 341 kts | 196° |
| 2026-05-05 00:36 | 38.66996 | -77.62573 | 12793 ft | 345 kts | 195° |
| 2026-05-05 00:37 | 38.64618 | -77.63121 | 13541 ft | 349 kts | 195° |
| 2026-05-05 00:37 | 38.62211 | -77.63676 | 14232 ft | 352 kts | 195° |
| 2026-05-05 00:37 | 38.59795 | -77.64234 | 14897 ft | 355 kts | 195° |
| 2026-05-05 00:37 | 38.57386 | -77.64792 | 15555 ft | 357 kts | 195° |
| 2026-05-05 00:38 | 38.54932 | -77.65362 | 16215 ft | 360 kts | 194° |
| 2026-05-05 00:38 | 38.53261 | -77.65751 | 16658 ft | 362 kts | 194° |
| 2026-05-05 00:38 | 38.50774 | -77.66331 | 17308 ft | 365 kts | 194° |
| 2026-05-05 00:38 | 38.48280 | -77.66979 | 17956 ft | 365 kts | 200° |
| 2026-05-05 00:39 | 38.45941 | -77.68206 | 18538 ft | 363 kts | 213° |
| 2026-05-05 00:39 | 38.43896 | -77.70069 | 19085 ft | 360 kts | 226° |
| 2026-05-05 00:39 | 38.42211 | -77.72377 | 19638 ft | 361 kts | 232° |
| 2026-05-05 00:39 | 38.40565 | -77.74800 | 20204 ft | 363 kts | 232° |
| 2026-05-05 00:40 | 38.38901 | -77.77240 | 20761 ft | 366 kts | 232° |
| 2026-05-05 00:40 | 38.37225 | -77.79693 | 21340 ft | 368 kts | 232° |
| 2026-05-05 00:40 | 38.35555 | -77.82175 | 21899 ft | 370 kts | 233° |
| 2026-05-05 00:40 | 38.33898 | -77.84706 | 22456 ft | 373 kts | 234° |
| 2026-05-05 00:41 | 38.32245 | -77.87266 | 23006 ft | 375 kts | 234° |
| 2026-05-05 00:41 | 38.30579 | -77.89852 | 23536 ft | 378 kts | 234° |
| 2026-05-05 00:41 | 38.28903 | -77.92449 | 23978 ft | 381 kts | 234° |
| 2026-05-05 00:41 | 38.27213 | -77.95056 | 24417 ft | 383 kts | 234° |
| 2026-05-05 00:42 | 38.25510 | -77.97674 | 24850 ft | 385 kts | 234° |
| 2026-05-05 00:42 | 38.23794 | -78.00305 | 25265 ft | 388 kts | 234° |
| 2026-05-05 00:42 | 38.22066 | -78.02950 | 25676 ft | 390 kts | 234° |
| 2026-05-05 00:42 | 38.20327 | -78.05607 | 26082 ft | 392 kts | 235° |
| 2026-05-05 00:43 | 38.18578 | -78.08277 | 26480 ft | 394 kts | 235° |
| 2026-05-05 00:43 | 38.16821 | -78.10957 | 26854 ft | 396 kts | 235° |
| 2026-05-05 00:43 | 38.15048 | -78.13660 | 27224 ft | 399 kts | 235° |
| 2026-05-05 00:43 | 38.13263 | -78.16375 | 27593 ft | 401 kts | 235° |
| 2026-05-05 00:44 | 38.11468 | -78.19103 | 27890 ft | 404 kts | 235° |
| 2026-05-05 00:44 | 38.09681 | -78.21808 | 27937 ft | 392 kts | 235° |
| 2026-05-05 00:44 | 38.07960 | -78.24404 | 27940 ft | 379 kts | 236° |
| 2026-05-05 00:44 | 38.06283 | -78.26955 | 27942 ft | 374 kts | 236° |
| 2026-05-05 00:45 | 38.04642 | -78.29502 | 27942 ft | 372 kts | 237° |
| 2026-05-05 00:45 | 38.03017 | -78.32057 | 27949 ft | 372 kts | 237° |
| 2026-05-05 00:45 | 38.01393 | -78.34615 | 27948 ft | 372 kts | 237° |
| 2026-05-05 00:45 | 37.99768 | -78.37169 | 27950 ft | 372 kts | 237° |
| 2026-05-05 00:46 | 37.98163 | -78.39684 | 27949 ft | 372 kts | 236° |
| 2026-05-05 00:46 | 37.96528 | -78.42235 | 27947 ft | 373 kts | 236° |
| 2026-05-05 00:46 | 37.94888 | -78.44783 | 27947 ft | 373 kts | 236° |
| 2026-05-05 00:46 | 37.93247 | -78.47329 | 27945 ft | 373 kts | 236° |
| 2026-05-05 00:47 | 37.91605 | -78.49874 | 27943 ft | 373 kts | 236° |
| 2026-05-05 00:47 | 37.89961 | -78.52418 | 27942 ft | 373 kts | 236° |
| 2026-05-05 00:47 | 37.88319 | -78.54960 | 27940 ft | 373 kts | 236° |
| 2026-05-05 00:47 | 37.86676 | -78.57501 | 27937 ft | 373 kts | 236° |
| 2026-05-05 00:48 | 37.85031 | -78.60044 | 27938 ft | 373 kts | 236° |
| 2026-05-05 00:48 | 37.83387 | -78.62588 | 27935 ft | 373 kts | 236° |
| 2026-05-05 00:48 | 37.81742 | -78.65130 | 27933 ft | 374 kts | 236° |
| 2026-05-05 00:48 | 37.80096 | -78.67669 | 27932 ft | 374 kts | 236° |
| 2026-05-05 00:49 | 37.78444 | -78.70215 | 27931 ft | 374 kts | 236° |
| 2026-05-05 00:49 | 37.76792 | -78.72757 | 27932 ft | 374 kts | 236° |
| 2026-05-05 00:49 | 37.75138 | -78.75298 | 27932 ft | 374 kts | 236° |
| 2026-05-05 00:49 | 37.73484 | -78.77841 | 27939 ft | 375 kts | 235° |
| 2026-05-05 00:50 | 37.71680 | -78.80235 | 27943 ft | 380 kts | 226° |
| 2026-05-05 00:50 | 37.69570 | -78.82290 | 27937 ft | 383 kts | 221° |
| 2026-05-05 00:50 | 37.67449 | -78.84264 | 27928 ft | 383 kts | 221° |
| 2026-05-05 00:50 | 37.65305 | -78.86266 | 27929 ft | 384 kts | 221° |
| 2026-05-05 00:51 | 37.63130 | -78.88297 | 27926 ft | 384 kts | 221° |
| 2026-05-05 00:51 | 37.61009 | -78.90277 | 27943 ft | 384 kts | 221° |
| 2026-05-05 00:51 | 37.58863 | -78.92282 | 27933 ft | 384 kts | 221° |
| 2026-05-05 00:51 | 37.56713 | -78.94289 | 27938 ft | 385 kts | 221° |
| 2026-05-05 00:52 | 37.54559 | -78.96295 | 27956 ft | 385 kts | 221° |
| 2026-05-05 00:52 | 37.52408 | -78.98298 | 27946 ft | 385 kts | 221° |
| 2026-05-05 00:52 | 37.50256 | -79.00299 | 27950 ft | 385 kts | 221° |
| 2026-05-05 00:52 | 37.48105 | -79.02302 | 27952 ft | 384 kts | 221° |
| 2026-05-05 00:53 | 37.45959 | -79.04305 | 27960 ft | 384 kts | 221° |
| 2026-05-05 00:53 | 37.43811 | -79.06305 | 27961 ft | 384 kts | 221° |
| 2026-05-05 00:53 | 37.41641 | -79.08271 | 27959 ft | 384 kts | 219° |
| 2026-05-05 00:53 | 37.39446 | -79.10189 | 27960 ft | 385 kts | 219° |
| 2026-05-05 00:54 | 37.37238 | -79.12089 | 27964 ft | 384 kts | 219° |
| 2026-05-05 00:54 | 37.35034 | -79.13987 | 27969 ft | 384 kts | 219° |
| 2026-05-05 00:54 | 37.32837 | -79.15889 | 27970 ft | 384 kts | 219° |
| 2026-05-05 00:54 | 37.30638 | -79.17796 | 27972 ft | 383 kts | 219° |
| 2026-05-05 00:55 | 37.28445 | -79.19703 | 27971 ft | 383 kts | 219° |
| 2026-05-05 00:55 | 37.26253 | -79.21612 | 27972 ft | 383 kts | 219° |
| 2026-05-05 00:55 | 37.24068 | -79.23518 | 27974 ft | 383 kts | 219° |
| 2026-05-05 00:55 | 37.21896 | -79.25441 | 27973 ft | 382 kts | 220° |
| 2026-05-05 00:56 | 37.19737 | -79.27388 | 27974 ft | 382 kts | 220° |
| 2026-05-05 00:56 | 37.17588 | -79.29346 | 27971 ft | 381 kts | 220° |
| 2026-05-05 00:56 | 37.15444 | -79.31299 | 27970 ft | 381 kts | 220° |
| 2026-05-05 00:56 | 37.13299 | -79.33247 | 27966 ft | 381 kts | 220° |
| 2026-05-05 00:57 | 37.11147 | -79.35188 | 27965 ft | 381 kts | 220° |
| 2026-05-05 00:57 | 37.08997 | -79.37123 | 27962 ft | 381 kts | 220° |
| 2026-05-05 00:57 | 37.06846 | -79.39062 | 27962 ft | 380 kts | 220° |
| 2026-05-05 00:57 | 37.04697 | -79.40993 | 27958 ft | 380 kts | 220° |
| 2026-05-05 00:58 | 37.02548 | -79.42917 | 27959 ft | 380 kts | 220° |
| 2026-05-05 00:58 | 37.00386 | -79.44834 | 27958 ft | 380 kts | 219° |
| 2026-05-05 00:58 | 36.98205 | -79.46706 | 27955 ft | 381 kts | 218° |
| 2026-05-05 00:58 | 36.96007 | -79.48554 | 27957 ft | 381 kts | 218° |
| 2026-05-05 00:59 | 36.93805 | -79.50392 | 27955 ft | 380 kts | 218° |
| 2026-05-05 00:59 | 36.91601 | -79.52231 | 27957 ft | 380 kts | 218° |
| 2026-05-05 00:59 | 36.89401 | -79.54073 | 27953 ft | 380 kts | 218° |
| 2026-05-05 00:59 | 36.87202 | -79.55915 | 27956 ft | 380 kts | 218° |
| 2026-05-05 01:00 | 36.85005 | -79.57758 | 27949 ft | 380 kts | 218° |
| 2026-05-05 01:00 | 36.82838 | -79.59580 | 27950 ft | 380 kts | 218° |
| 2026-05-05 01:00 | 36.80643 | -79.61421 | 27955 ft | 380 kts | 218° |
| 2026-05-05 01:00 | 36.78450 | -79.63266 | 27952 ft | 380 kts | 219° |
| 2026-05-05 01:01 | 36.76257 | -79.65110 | 27953 ft | 380 kts | 218° |
| 2026-05-05 01:01 | 36.74066 | -79.66951 | 27962 ft | 380 kts | 219° |
| 2026-05-05 01:01 | 36.71874 | -79.68791 | 27967 ft | 380 kts | 219° |
| 2026-05-05 01:01 | 36.69681 | -79.70633 | 27971 ft | 380 kts | 219° |
| 2026-05-05 01:02 | 36.67488 | -79.72469 | 27980 ft | 380 kts | 219° |
| 2026-05-05 01:02 | 36.65295 | -79.74297 | 27984 ft | 380 kts | 219° |
| 2026-05-05 01:02 | 36.63096 | -79.76130 | 27985 ft | 380 kts | 219° |
| 2026-05-05 01:02 | 36.60896 | -79.77963 | 27980 ft | 380 kts | 219° |
| 2026-05-05 01:03 | 36.58701 | -79.79793 | 27989 ft | 380 kts | 219° |
| 2026-05-05 01:03 | 36.56506 | -79.81624 | 27984 ft | 380 kts | 219° |
| 2026-05-05 01:03 | 36.54308 | -79.83451 | 27991 ft | 380 kts | 219° |
| 2026-05-05 01:03 | 36.52110 | -79.85272 | 27992 ft | 380 kts | 219° |
| 2026-05-05 01:04 | 36.49915 | -79.87090 | 27814 ft | 376 kts | 219° |
| 2026-05-05 01:04 | 36.45608 | -79.90671 | 26950 ft | 369 kts | 218° |
| 2026-05-05 01:04 | 36.43485 | -79.92435 | 26522 ft | 366 kts | 218° |
| 2026-05-05 01:05 | 36.41379 | -79.94185 | 26078 ft | 363 kts | 218° |
| 2026-05-05 01:05 | 36.39288 | -79.95923 | 25626 ft | 360 kts | 218° |
| 2026-05-05 01:05 | 36.37211 | -79.97646 | 25180 ft | 358 kts | 218° |
| 2026-05-05 01:05 | 36.35140 | -79.99356 | 24725 ft | 357 kts | 218° |
| 2026-05-05 01:06 | 36.33077 | -80.01060 | 24258 ft | 355 kts | 218° |
| 2026-05-05 01:06 | 36.31020 | -80.02757 | 23793 ft | 355 kts | 218° |
| 2026-05-05 01:06 | 36.28963 | -80.04449 | 23286 ft | 354 kts | 218° |
| 2026-05-05 01:06 | 36.26952 | -80.06108 | 22829 ft | 351 kts | 218° |
| 2026-05-05 01:07 | 36.24927 | -80.07779 | 22373 ft | 348 kts | 218° |
| 2026-05-05 01:07 | 36.22921 | -80.09436 | 21941 ft | 346 kts | 218° |
| 2026-05-05 01:07 | 36.20924 | -80.11083 | 21500 ft | 343 kts | 218° |
| 2026-05-05 01:07 | 36.18938 | -80.12716 | 21062 ft | 342 kts | 218° |
| 2026-05-05 01:08 | 36.16962 | -80.14338 | 20638 ft | 340 kts | 218° |
| 2026-05-05 01:08 | 36.14996 | -80.15952 | 20211 ft | 338 kts | 218° |
| 2026-05-05 01:08 | 36.13038 | -80.17558 | 19791 ft | 336 kts | 218° |
| 2026-05-05 01:08 | 36.11091 | -80.19153 | 19368 ft | 335 kts | 218° |
| 2026-05-05 01:09 | 36.09149 | -80.20745 | 18949 ft | 334 kts | 218° |
| 2026-05-05 01:09 | 36.07215 | -80.22329 | 18537 ft | 333 kts | 218° |
| 2026-05-05 01:09 | 36.05282 | -80.23913 | 18100 ft | 333 kts | 218° |
| 2026-05-05 01:09 | 36.03352 | -80.25490 | 17634 ft | 332 kts | 217° |
| 2026-05-05 01:10 | 36.01430 | -80.27061 | 17234 ft | 330 kts | 217° |
| 2026-05-05 01:10 | 35.99527 | -80.28614 | 16839 ft | 327 kts | 217° |
| 2026-05-05 01:10 | 35.97632 | -80.30164 | 16448 ft | 325 kts | 217° |
| 2026-05-05 01:10 | 35.95750 | -80.31704 | 16056 ft | 323 kts | 217° |
| 2026-05-05 01:11 | 35.93906 | -80.33211 | 15686 ft | 322 kts | 217° |
| 2026-05-05 01:11 | 35.92042 | -80.34734 | 15300 ft | 320 kts | 217° |
| 2026-05-05 01:11 | 35.90185 | -80.36249 | 14928 ft | 319 kts | 217° |
| 2026-05-05 01:11 | 35.88336 | -80.37757 | 14558 ft | 318 kts | 217° |
| 2026-05-05 01:12 | 35.86502 | -80.39253 | 14296 ft | 312 kts | 217° |
| 2026-05-05 01:12 | 35.84718 | -80.40706 | 14109 ft | 305 kts | 217° |
| 2026-05-05 01:12 | 35.82967 | -80.42141 | 14014 ft | 300 kts | 218° |
| 2026-05-05 01:12 | 35.81274 | -80.43661 | 13613 ft | 302 kts | 221° |
| 2026-05-05 01:13 | 35.79627 | -80.45250 | 13265 ft | 299 kts | 222° |
| 2026-05-05 01:13 | 35.78006 | -80.46851 | 12899 ft | 297 kts | 222° |
| 2026-05-05 01:13 | 35.76397 | -80.48445 | 12473 ft | 297 kts | 222° |
| 2026-05-05 01:13 | 35.74724 | -80.49900 | 12200 ft | 295 kts | 212° |
| 2026-05-05 01:14 | 35.72814 | -80.50850 | 11829 ft | 297 kts | 201° |
| 2026-05-05 01:14 | 35.70845 | -80.51613 | 11464 ft | 296 kts | 201° |
| 2026-05-05 01:14 | 35.68888 | -80.52363 | 11114 ft | 294 kts | 201° |
| 2026-05-05 01:14 | 35.66938 | -80.53107 | 10763 ft | 292 kts | 201° |
| 2026-05-05 01:15 | 35.65009 | -80.53843 | 10387 ft | 288 kts | 201° |
| 2026-05-05 01:15 | 35.63124 | -80.54565 | 9768 ft | 285 kts | 201° |
| 2026-05-05 01:15 | 35.61235 | -80.55290 | 9270 ft | 275 kts | 200° |
| 2026-05-05 01:15 | 35.59480 | -80.56007 | 8965 ft | 258 kts | 209° |
| 2026-05-05 01:16 | 35.58069 | -80.57280 | 8680 ft | 248 kts | 231° |
| 2026-05-05 01:16 | 35.57190 | -80.59068 | 8557 ft | 245 kts | 251° |
| 2026-05-05 01:16 | 35.56908 | -80.61120 | 8298 ft | 245 kts | 269° |
| 2026-05-05 01:16 | 35.56890 | -80.63183 | 7949 ft | 244 kts | 268° |
| 2026-05-05 01:17 | 35.56871 | -80.65265 | 7584 ft | 244 kts | 268° |
| 2026-05-05 01:17 | 35.56850 | -80.67306 | 7426 ft | 233 kts | 268° |
| 2026-05-05 01:17 | 35.56931 | -80.69249 | 7268 ft | 224 kts | 275° |
| 2026-05-05 01:17 | 35.57118 | -80.71138 | 6981 ft | 221 kts | 273° |
| 2026-05-05 01:18 | 35.57173 | -80.73021 | 6626 ft | 221 kts | 266° |
| 2026-05-05 01:18 | 35.56980 | -80.74908 | 6246 ft | 222 kts | 258° |
| 2026-05-05 01:18 | 35.56757 | -80.76765 | 6075 ft | 219 kts | 260° |
| 2026-05-05 01:18 | 35.56600 | -80.78624 | 6009 ft | 218 kts | 263° |
| 2026-05-05 01:19 | 35.56434 | -80.80477 | 6011 ft | 219 kts | 260° |
| 2026-05-05 01:19 | 35.56216 | -80.82323 | 6008 ft | 219 kts | 259° |
| 2026-05-05 01:19 | 35.55867 | -80.84128 | 6011 ft | 217 kts | 241° |
| 2026-05-05 01:19 | 35.54847 | -80.85446 | 6015 ft | 217 kts | 208° |
| 2026-05-05 01:20 | 35.53398 | -80.86005 | 6016 ft | 220 kts | 194° |
| 2026-05-05 01:20 | 35.51890 | -80.86346 | 6013 ft | 220 kts | 192° |
| 2026-05-05 01:20 | 35.50436 | -80.86641 | 6042 ft | 202 kts | 192° |
| 2026-05-05 01:20 | 35.49095 | -80.86903 | 6021 ft | 191 kts | 192° |
| 2026-05-05 01:21 | 35.47852 | -80.87372 | 6015 ft | 186 kts | 208° |
| 2026-05-05 01:21 | 35.46719 | -80.88119 | 6016 ft | 185 kts | 211° |
| 2026-05-05 01:21 | 35.45604 | -80.88905 | 6020 ft | 185 kts | 212° |
| 2026-05-05 01:21 | 35.44512 | -80.89682 | 5972 ft | 176 kts | 212° |
| 2026-05-05 01:22 | 35.43437 | -80.90466 | 5788 ft | 182 kts | 212° |
| 2026-05-05 01:22 | 35.42348 | -80.91266 | 5592 ft | 182 kts | 212° |
| 2026-05-05 01:22 | 35.41265 | -80.92060 | 5362 ft | 180 kts | 212° |
| 2026-05-05 01:22 | 35.40194 | -80.92848 | 5130 ft | 179 kts | 211° |
| 2026-05-05 01:23 | 35.39131 | -80.93624 | 4875 ft | 177 kts | 211° |
| 2026-05-05 01:23 | 35.38071 | -80.94373 | 4640 ft | 175 kts | 207° |
| 2026-05-05 01:23 | 35.36900 | -80.94779 | 4356 ft | 177 kts | 187° |
| 2026-05-05 01:23 | 35.35670 | -80.94774 | 4041 ft | 177 kts | 180° |
| 2026-05-05 01:24 | 35.34451 | -80.94640 | 3785 ft | 173 kts | 177° |
| 2026-05-05 01:24 | 35.33671 | -80.94529 | 3608 ft | 167 kts | 177° |
| 2026-05-05 01:24 | 35.32565 | -80.94408 | 3342 ft | 151 kts | 180° |
| 2026-05-05 01:24 | 35.31554 | -80.94369 | 3034 ft | 141 kts | 183° |
| 2026-05-05 01:25 | 35.30274 | -80.94335 | 2707 ft | 137 kts | 181° |
| 2026-05-05 01:25 | 35.29323 | -80.94261 | 2480 ft | 137 kts | 178° |
| 2026-05-05 01:25 | 35.28687 | -80.94173 | 2255 ft | 136 kts | 178° |
| 2026-05-05 01:25 | 35.27756 | -80.94028 | 1947 ft | 134 kts | 178° |
| 2026-05-05 01:26 | 35.26829 | -80.93949 | 1710 ft | 134 kts | 180° |
| 2026-05-05 01:26 | 35.25902 | -80.93910 | 1452 ft | 136 kts | 180° |
| 2026-05-05 01:26 | 35.24955 | -80.93848 | 1250 ft | 136 kts | 177° |
| 2026-05-05 01:26 | 35.24010 | -80.93759 | 1072 ft | 137 kts | 176° |
| 2026-05-05 01:27 | 35.23063 | -80.93671 | 904 ft | 137 kts | 177° |
| 2026-05-05 01:27 | 35.22114 | -80.93587 | 737 ft | 135 kts | 175° |
| 2026-05-05 01:27 | 35.21332 | -80.93520 | 734 ft | 87 kts | 176° |
| 2026-05-05 01:27 | 35.20899 | -80.93483 | 734 ft | 38 kts | 176° |
| 2026-05-05 01:28 | 35.20705 | -80.93466 | 736 ft | 28 kts | 177° |
| 2026-05-05 01:28 | 35.20530 | -80.93503 | 735 ft | 16 kts | 206° |
| 2026-05-05 01:28 | 35.20531 | -80.93583 | 733 ft | 13 kts | 338° |
| 2026-05-05 01:28 | 35.20617 | -80.93593 | 733 ft | 12 kts | 355° |
| 2026-05-05 01:29 | 35.20699 | -80.93601 | 733 ft | 13 kts | 356° |
| 2026-05-05 01:29 | 35.20787 | -80.93608 | 733 ft | 12 kts | 356° |
| 2026-05-05 01:29 | 35.20896 | -80.93617 | 733 ft | 19 kts | 356° |
| 2026-05-05 01:29 | 35.21013 | -80.93628 | 733 ft | 14 kts | 356° |
| 2026-05-05 01:30 | 35.21100 | -80.93635 | 733 ft | 12 kts | 356° |
| 2026-05-05 01:30 | 35.21176 | -80.93641 | 733 ft | 10 kts | 356° |
| 2026-05-05 01:30 | 35.21244 | -80.93647 | 733 ft | 9 kts | 355° |
| 2026-05-05 01:30 | 35.21301 | -80.93652 | 733 ft | 8 kts | 355° |
| 2026-05-05 01:31 | 35.21357 | -80.93657 | 733 ft | 12 kts | 356° |
| 2026-05-05 01:31 | 35.21451 | -80.93722 | 733 ft | 17 kts | 319° |
| 2026-05-05 01:31 | 35.21544 | -80.93822 | 732 ft | 18 kts | 318° |
| 2026-05-05 01:31 | 35.21626 | -80.93910 | 733 ft | 13 kts | 319° |
| 2026-05-05 01:32 | 35.21693 | -80.93982 | 732 ft | 12 kts | 319° |
| 2026-05-05 01:32 | 35.21721 | -80.94049 | 732 ft | 8 kts | 256° |
| 2026-05-05 01:32 | 35.21666 | -80.94133 | 731 ft | 17 kts | 228° |
| 2026-05-05 01:32 | 35.21629 | -80.94253 | 732 ft | 15 kts | 276° |
| 2026-05-05 01:33 | 35.21627 | -80.94361 | 731 ft | 12 kts | 239° |
| 2026-05-05 01:33 | 35.21582 | -80.94449 | 732 ft | 13 kts | 246° |
| 2026-05-05 01:33 | 35.21567 | -80.94566 | 732 ft | 15 kts | 265° |
| 2026-05-05 01:33 | 35.21560 | -80.94700 | 732 ft | 17 kts | 266° |
| 2026-05-05 01:34 | 35.21552 | -80.94839 | 732 ft | 15 kts | 266° |
| 2026-05-05 01:34 | 35.21593 | -80.94928 | 733 ft | 13 kts | 346° |
| 2026-05-05 01:34 | 35.21678 | -80.94939 | 733 ft | 12 kts | 355° |
| 2026-05-05 01:34 | 35.21755 | -80.94947 | 733 ft | 12 kts | 355° |
| 2026-05-05 01:35 | 35.21852 | -80.94958 | 733 ft | 15 kts | 355° |
| 2026-05-05 01:35 | 35.21956 | -80.94967 | 733 ft | 14 kts | 356° |
| 2026-05-05 01:35 | 35.22048 | -80.94974 | 733 ft | 12 kts | 358° |
| 2026-05-05 01:35 | 35.22120 | -80.94941 | 733 ft | 11 kts | 59° |
| 2026-05-05 01:36 | 35.22128 | -80.94856 | 733 ft | 10 kts | 86° |
| 2026-05-05 01:36 | 35.22133 | -80.94779 | 732 ft | 8 kts | 85° |
| 2026-05-05 01:36 | 35.22117 | -80.94733 | 731 ft | 5 kts | 173° |
| 2026-05-05 01:36 | 35.22085 | -80.94730 | 732 ft | 4 kts | 176° |
| 2026-05-05 01:37 | 35.22069 | -80.94729 | 732 ft | 0 kts | 176° |